createdAt,value
2023-05-05T00:00:30.412Z,10.38
2023-05-05T00:01:33.452Z,10.40
2023-05-05T00:02:35.871Z,10.33
2023-05-05T00:03:37.877Z,10.31
2023-05-05T00:04:39.809Z,10.32
2023-05-05T00:05:42.476Z,10.35
2023-05-05T00:06:44.458Z,10.34
2023-05-05T00:07:46.470Z,10.35
2023-05-05T00:08:48.266Z,10.32
2023-05-05T00:09:50.152Z,10.32
2023-05-05T00:10:52.804Z,10.29
2023-05-05T00:11:54.673Z,10.31
2023-05-05T00:12:56.670Z,10.34
2023-05-05T00:13:58.631Z,10.32
2023-05-05T00:15:00.653Z,10.33
2023-05-05T00:16:02.619Z,10.33
2023-05-05T00:17:04.483Z,10.32
2023-05-05T00:18:06.482Z,10.34
2023-05-05T00:19:08.416Z,10.34
2023-05-05T00:20:10.593Z,10.28
2023-05-05T00:21:12.641Z,10.26
2023-05-05T00:22:14.625Z,10.28
2023-05-05T00:23:16.822Z,10.28
2023-05-05T00:24:18.706Z,10.22
2023-05-05T00:25:20.628Z,10.22
2023-05-05T00:26:22.530Z,10.23
2023-05-05T00:27:24.372Z,10.19
2023-05-05T00:28:26.356Z,10.15
2023-05-05T00:29:28.326Z,10.18
2023-05-05T00:30:30.611Z,10.19
2023-05-05T00:31:32.547Z,10.21
2023-05-05T00:32:34.632Z,10.23
2023-05-05T00:33:36.776Z,10.20
2023-05-05T00:34:38.615Z,10.17
2023-05-05T00:35:40.687Z,10.18
2023-05-05T00:36:42.864Z,10.14
2023-05-05T00:37:45.183Z,10.13
2023-05-05T00:38:47.047Z,10.16
2023-05-05T00:39:48.962Z,10.19
2023-05-05T00:40:50.769Z,10.18
2023-05-05T00:41:52.706Z,10.13
2023-05-05T00:42:54.582Z,10.15
2023-05-05T00:43:56.441Z,10.15
2023-05-05T00:44:58.979Z,10.15
2023-05-05T00:46:02.525Z,10.17
2023-05-05T00:47:04.513Z,10.17
2023-05-05T00:48:06.847Z,10.14
2023-05-05T00:49:09.175Z,10.13
2023-05-05T00:50:13.872Z,10.18
2023-05-05T00:51:16.953Z,10.23
2023-05-05T00:52:18.870Z,10.26
2023-05-05T00:53:20.987Z,10.18
2023-05-05T00:54:22.888Z,10.17
2023-05-05T00:55:24.850Z,10.18
2023-05-05T00:56:27.669Z,10.15
2023-05-05T00:57:29.597Z,10.12
2023-05-05T00:58:31.554Z,10.02
2023-05-05T00:59:34.010Z,9.88
2023-05-05T01:00:35.957Z,9.84
2023-05-05T01:01:37.843Z,9.73
2023-05-05T01:02:40.052Z,9.77
2023-05-05T01:03:42.120Z,9.82
2023-05-05T01:04:44.124Z,9.86
2023-05-05T01:06:06.251Z,9.84
2023-05-05T01:07:22.661Z,9.81
2023-05-05T01:08:29.701Z,9.79
2023-05-05T01:09:37.359Z,9.74
2023-05-05T01:10:45.450Z,9.76
2023-05-05T01:11:50.353Z,9.82
2023-05-05T01:13:10.885Z,9.84
2023-05-05T01:14:14.970Z,9.84
2023-05-05T01:15:26.842Z,9.82
2023-05-05T01:16:30.023Z,9.81
2023-05-05T01:17:45.899Z,9.80
2023-05-05T01:19:06.357Z,9.78
2023-05-05T01:20:33.705Z,9.74
2023-05-05T01:21:48.551Z,9.65
2023-05-05T01:22:57.805Z,9.59
2023-05-05T01:24:11.275Z,9.63
2023-05-05T01:25:32.021Z,9.70
2023-05-05T01:26:49.166Z,9.75
2023-05-05T01:28:09.837Z,9.73
2023-05-05T01:29:11.608Z,9.68
2023-05-05T01:30:32.243Z,9.61
2023-05-05T01:31:54.406Z,9.60
2023-05-05T01:33:01.141Z,9.51
2023-05-05T01:34:06.663Z,9.43
2023-05-05T01:35:15.271Z,9.39
2023-05-05T01:36:23.039Z,9.44
2023-05-05T01:37:45.172Z,9.45
2023-05-05T01:38:47.528Z,9.43
2023-05-05T01:39:52.530Z,9.42
2023-05-05T01:41:05.278Z,9.38
2023-05-05T01:42:09.695Z,9.39
2023-05-05T01:43:13.843Z,9.41
2023-05-05T01:44:17.147Z,9.40
2023-05-05T01:45:21.267Z,9.35
2023-05-05T01:46:24.383Z,9.34
2023-05-05T01:47:26.850Z,9.33
2023-05-05T01:48:30.270Z,9.32
2023-05-05T01:49:33.302Z,9.32
2023-05-05T01:50:37.088Z,9.37
2023-05-05T01:51:40.207Z,9.37
2023-05-05T01:52:42.864Z,9.37
2023-05-05T01:53:47.443Z,9.30
2023-05-05T01:54:50.226Z,9.34
2023-05-05T01:55:52.640Z,9.37
2023-05-05T01:56:56.983Z,9.41
2023-05-05T01:57:59.862Z,9.44
2023-05-05T01:59:02.777Z,9.45
2023-05-05T02:00:05.619Z,9.48
2023-05-05T02:01:08.164Z,9.41
2023-05-05T02:02:11.618Z,9.44
2023-05-05T02:03:15.001Z,9.44
2023-05-05T02:04:18.724Z,9.44
2023-05-05T02:05:23.153Z,9.39
2023-05-05T02:06:25.665Z,9.25
2023-05-05T02:07:28.420Z,9.24
2023-05-05T02:08:31.279Z,9.18
2023-05-05T02:09:33.525Z,9.24
2023-05-05T02:10:35.751Z,9.28
2023-05-05T02:11:38.743Z,9.36
2023-05-05T02:12:43.002Z,9.41
2023-05-05T02:13:45.157Z,9.40
2023-05-05T02:14:47.496Z,9.40
2023-05-05T02:15:49.698Z,9.18
2023-05-05T02:16:52.001Z,9.15
2023-05-05T02:17:54.080Z,9.16
2023-05-05T02:18:56.761Z,9.20
2023-05-05T02:19:59.373Z,9.15
2023-05-05T02:21:01.371Z,9.15
2023-05-05T02:22:03.494Z,9.12
2023-05-05T02:23:08.238Z,9.09
2023-05-05T02:24:10.173Z,9.04
2023-05-05T02:25:12.254Z,9.02
2023-05-05T02:26:17.010Z,9.00
2023-05-05T02:27:20.710Z,9.00
2023-05-05T02:28:27.363Z,9.07
2023-05-05T02:29:31.758Z,9.17
2023-05-05T02:30:35.479Z,9.16
2023-05-05T02:31:44.330Z,9.14
2023-05-05T02:32:52.827Z,9.21
2023-05-05T02:33:56.447Z,9.16
2023-05-05T02:35:03.109Z,9.16
2023-05-05T02:36:18.628Z,9.18
2023-05-05T02:37:23.826Z,9.14
2023-05-05T02:38:28.084Z,9.08
2023-05-05T02:39:44.065Z,9.08
2023-05-05T02:40:47.887Z,9.11
2023-05-05T02:41:50.717Z,9.08
2023-05-05T02:42:54.700Z,9.11
2023-05-05T02:43:58.339Z,9.13
2023-05-05T02:45:02.179Z,9.09
2023-05-05T02:46:04.015Z,9.03
2023-05-05T02:47:07.318Z,9.00
2023-05-05T02:48:11.009Z,9.02
2023-05-05T02:49:12.968Z,9.05
2023-05-05T02:50:15.947Z,9.05
2023-05-05T02:51:17.789Z,8.98
2023-05-05T02:52:19.812Z,9.00
2023-05-05T02:53:25.089Z,8.98
2023-05-05T02:54:27.667Z,8.92
2023-05-05T02:55:32.060Z,8.92
2023-05-05T02:56:40.329Z,8.89
2023-05-05T02:57:49.123Z,8.96
2023-05-05T02:58:57.058Z,9.02
2023-05-05T03:00:03.474Z,9.04
2023-05-05T03:01:23.932Z,8.98
2023-05-05T03:02:34.205Z,8.90
2023-05-05T03:03:41.306Z,8.89
2023-05-05T03:04:47.291Z,8.95
2023-05-05T03:05:54.149Z,8.92
2023-05-05T03:06:59.893Z,8.85
2023-05-05T03:08:10.252Z,8.87
2023-05-05T03:09:34.119Z,8.86
2023-05-05T03:10:40.602Z,8.91
2023-05-05T03:11:50.647Z,8.96
2023-05-05T03:12:56.974Z,9.05
2023-05-05T03:14:06.023Z,9.01
2023-05-05T03:15:09.638Z,9.00
2023-05-05T03:16:12.558Z,8.99
2023-05-05T03:17:15.105Z,9.02
2023-05-05T03:18:18.523Z,9.01
2023-05-05T03:19:20.859Z,9.01
2023-05-05T03:20:22.985Z,8.93
2023-05-05T03:21:25.290Z,8.90
2023-05-05T03:22:28.009Z,8.97
2023-05-05T03:23:29.988Z,8.91
2023-05-05T03:24:31.866Z,8.91
2023-05-05T03:25:47.069Z,8.99
2023-05-05T03:26:49.737Z,9.00
2023-05-05T03:27:51.569Z,9.04
2023-05-05T03:28:53.411Z,9.08
2023-05-05T03:29:55.271Z,8.94
2023-05-05T03:30:57.302Z,8.94
2023-05-05T03:31:59.529Z,8.88
2023-05-05T03:33:01.481Z,8.88
2023-05-05T03:34:03.440Z,8.89
2023-05-05T03:35:05.487Z,8.89
2023-05-05T03:36:07.493Z,8.94
2023-05-05T03:37:09.383Z,8.93
2023-05-05T03:38:11.233Z,8.89
2023-05-05T03:39:13.100Z,8.93
2023-05-05T03:40:15.038Z,8.94
2023-05-05T03:41:16.957Z,8.99
2023-05-05T03:42:18.828Z,9.01
2023-05-05T03:43:20.761Z,9.00
2023-05-05T03:44:22.648Z,9.02
2023-05-05T03:45:24.564Z,9.03
2023-05-05T03:46:26.617Z,9.02
2023-05-05T03:47:28.566Z,9.04
2023-05-05T03:48:30.571Z,9.07
2023-05-05T03:49:32.439Z,9.06
2023-05-05T03:50:34.330Z,9.00
2023-05-05T03:51:36.680Z,9.00
2023-05-05T03:52:38.556Z,8.96
2023-05-05T03:53:40.471Z,8.94
2023-05-05T03:54:43.315Z,8.94
2023-05-05T03:55:45.122Z,8.97
2023-05-05T03:56:47.064Z,8.97
2023-05-05T03:57:48.956Z,8.93
2023-05-05T03:58:51.270Z,8.93
2023-05-05T03:59:54.036Z,8.90
2023-05-05T04:00:55.934Z,8.89
2023-05-05T04:01:58.241Z,8.88
2023-05-05T04:03:00.174Z,8.91
2023-05-05T04:04:02.378Z,8.91
2023-05-05T04:05:04.593Z,8.92
2023-05-05T04:06:06.479Z,8.90
2023-05-05T04:07:08.498Z,8.91
2023-05-05T04:08:10.420Z,8.86
2023-05-05T04:09:12.742Z,8.79
2023-05-05T04:10:14.650Z,8.78
2023-05-05T04:11:16.706Z,8.79
2023-05-05T04:12:18.564Z,8.86
2023-05-05T04:13:20.494Z,8.90
2023-05-05T04:14:22.576Z,8.93
2023-05-05T04:15:24.486Z,8.97
2023-05-05T04:16:26.468Z,9.01
2023-05-05T04:17:28.423Z,9.02
2023-05-05T04:18:30.376Z,9.05
2023-05-05T04:19:32.603Z,9.07
2023-05-05T04:20:35.193Z,9.05
2023-05-05T04:21:37.223Z,9.05
2023-05-05T04:22:39.143Z,9.05
2023-05-05T04:23:41.060Z,9.08
2023-05-05T04:24:42.973Z,9.12
2023-05-05T04:25:44.858Z,9.15
2023-05-05T04:26:46.819Z,9.18
2023-05-05T04:27:48.630Z,9.25
2023-05-05T04:28:50.758Z,9.24
2023-05-05T04:29:52.700Z,9.29
2023-05-05T04:30:54.699Z,9.29
2023-05-05T04:31:57.174Z,9.30
2023-05-05T04:32:59.078Z,9.36
2023-05-05T04:34:01.195Z,9.29
2023-05-05T04:35:03.024Z,9.30
2023-05-05T04:36:04.993Z,9.30
2023-05-05T04:37:06.850Z,9.29
2023-05-05T04:38:08.647Z,9.28
2023-05-05T04:39:10.671Z,9.26
2023-05-05T04:40:12.850Z,9.24
2023-05-05T04:41:14.743Z,9.23
2023-05-05T04:42:16.663Z,9.28
2023-05-05T04:43:18.583Z,9.34
2023-05-05T04:44:20.502Z,9.32
2023-05-05T04:45:22.499Z,9.31
2023-05-05T04:46:25.184Z,9.32
2023-05-05T04:47:27.159Z,9.35
2023-05-05T04:48:29.073Z,9.32
2023-05-05T04:49:31.315Z,9.24
2023-05-05T04:50:33.293Z,9.20
2023-05-05T04:51:35.288Z,9.24
2023-05-05T04:52:37.943Z,9.29
2023-05-05T04:53:39.999Z,9.23
2023-05-05T04:54:41.918Z,9.19
2023-05-05T04:55:43.779Z,9.19
2023-05-05T04:56:45.690Z,9.20
2023-05-05T04:57:47.698Z,9.20
2023-05-05T04:58:50.174Z,9.25
2023-05-05T04:59:52.090Z,9.27
2023-05-05T05:00:53.985Z,9.28
2023-05-05T05:01:56.341Z,9.27
2023-05-05T05:02:58.407Z,9.26
2023-05-05T05:04:00.501Z,9.27
2023-05-05T05:05:02.525Z,9.32
2023-05-05T05:06:04.465Z,9.34
2023-05-05T05:07:06.518Z,9.38
2023-05-05T05:08:08.452Z,9.36
2023-05-05T05:09:10.249Z,9.36
2023-05-05T05:10:12.139Z,9.41
2023-05-05T05:11:14.069Z,9.41
2023-05-05T05:12:15.961Z,9.39
2023-05-05T05:13:17.930Z,9.41
2023-05-05T05:14:20.209Z,9.48
2023-05-05T05:15:22.082Z,9.55
2023-05-05T05:16:25.016Z,9.59
2023-05-05T05:17:27.303Z,9.59
2023-05-05T05:18:29.185Z,9.61
2023-05-05T05:19:31.059Z,9.66
2023-05-05T05:20:33.754Z,9.68
2023-05-05T05:21:36.526Z,9.70
2023-05-05T05:22:39.374Z,9.70
2023-05-05T05:23:41.259Z,9.74
2023-05-05T05:24:43.100Z,9.72
2023-05-05T05:25:45.101Z,9.71
2023-05-05T05:26:46.870Z,9.74
2023-05-05T05:27:58.533Z,9.78
2023-05-05T05:29:10.516Z,9.85
2023-05-05T05:30:12.541Z,9.91
2023-05-05T05:31:14.475Z,9.96
2023-05-05T05:32:16.425Z,9.98
2023-05-05T05:33:19.176Z,9.97
2023-05-05T05:34:21.031Z,9.98
2023-05-05T05:35:22.892Z,10.02
2023-05-05T05:36:24.744Z,10.04
2023-05-05T05:37:31.237Z,10.08
2023-05-05T05:38:33.787Z,10.16
2023-05-05T05:39:35.606Z,10.21
2023-05-05T05:40:37.642Z,10.26
2023-05-05T05:41:39.630Z,10.29
2023-05-05T05:42:42.205Z,10.33
2023-05-05T05:43:44.143Z,10.37
2023-05-05T05:44:46.090Z,10.39
2023-05-05T05:45:48.010Z,10.43
2023-05-05T05:46:49.887Z,10.46
2023-05-05T05:47:51.736Z,10.49
2023-05-05T05:48:53.710Z,10.48
2023-05-05T05:49:55.556Z,10.51
2023-05-05T05:50:57.501Z,10.53
2023-05-05T05:51:59.323Z,10.55
2023-05-05T05:53:01.296Z,10.57
2023-05-05T05:54:03.260Z,10.58
2023-05-05T05:55:05.559Z,10.54
2023-05-05T05:56:07.559Z,10.58
2023-05-05T05:57:09.348Z,10.58
2023-05-05T05:58:11.230Z,10.61
2023-05-05T05:59:13.220Z,10.64
2023-05-05T06:00:16.203Z,10.67
2023-05-05T06:01:18.074Z,10.72
2023-05-05T06:02:21.233Z,10.78
2023-05-05T06:03:23.142Z,10.84
2023-05-05T06:04:25.385Z,10.89
2023-05-05T06:05:27.369Z,10.94
2023-05-05T06:06:29.166Z,10.99
2023-05-05T06:07:30.982Z,11.03
2023-05-05T06:08:32.949Z,11.06
2023-05-05T06:09:34.882Z,11.10
2023-05-05T06:10:36.682Z,11.13
2023-05-05T06:11:38.760Z,11.19
2023-05-05T06:12:40.726Z,11.23
2023-05-05T06:13:42.768Z,11.27
2023-05-05T06:14:44.732Z,11.31
2023-05-05T06:15:46.688Z,11.36
2023-05-05T06:16:48.502Z,11.40
2023-05-05T06:17:50.337Z,11.46
2023-05-05T06:18:52.397Z,11.47
2023-05-05T06:19:54.640Z,11.48
2023-05-05T06:20:56.626Z,11.49
2023-05-05T06:21:58.554Z,11.52
2023-05-05T06:23:00.482Z,11.57
2023-05-05T06:24:02.272Z,11.60
2023-05-05T06:25:04.173Z,11.63
2023-05-05T06:26:06.254Z,11.67
2023-05-05T06:27:08.455Z,11.72
2023-05-05T06:28:10.287Z,11.77
2023-05-05T06:29:12.546Z,11.82
2023-05-05T06:30:14.945Z,11.85
2023-05-05T06:31:16.859Z,11.90
2023-05-05T06:32:18.816Z,11.96
2023-05-05T06:33:20.720Z,11.98
2023-05-05T06:34:22.579Z,12.00
2023-05-05T06:35:24.990Z,12.04
2023-05-05T06:36:26.970Z,12.09
2023-05-05T06:37:28.973Z,12.11
2023-05-05T06:38:31.063Z,12.15
2023-05-05T06:39:32.818Z,12.16
2023-05-05T06:40:34.711Z,12.21
2023-05-05T06:41:36.657Z,12.26
2023-05-05T06:42:38.470Z,12.29
2023-05-05T06:43:40.291Z,12.33
2023-05-05T06:44:42.159Z,12.38
2023-05-05T06:45:44.109Z,12.41
2023-05-05T06:46:46.064Z,12.43
2023-05-05T06:47:48.329Z,12.43
2023-05-05T06:48:50.462Z,12.46
2023-05-05T06:49:52.641Z,12.49
2023-05-05T06:50:55.092Z,12.52
2023-05-05T06:51:56.936Z,12.54
2023-05-05T06:52:58.825Z,12.58
2023-05-05T06:54:00.718Z,12.61
2023-05-05T06:55:04.113Z,12.65
2023-05-05T06:56:06.386Z,12.70
2023-05-05T06:57:08.262Z,12.75
2023-05-05T06:58:10.170Z,12.77
2023-05-05T06:59:12.260Z,12.79
2023-05-05T07:00:15.235Z,12.83
2023-05-05T07:01:17.438Z,12.87
2023-05-05T07:02:19.447Z,12.90
2023-05-05T07:03:21.450Z,12.91
2023-05-05T07:04:23.427Z,12.95
2023-05-05T07:05:25.246Z,12.96
2023-05-05T07:06:27.188Z,12.95
2023-05-05T07:07:29.069Z,12.98
2023-05-05T07:08:30.929Z,13.02
2023-05-05T07:09:32.850Z,13.05
2023-05-05T07:10:34.744Z,13.10
2023-05-05T07:11:38.015Z,13.13
2023-05-05T07:12:39.850Z,13.17
2023-05-05T07:13:41.720Z,13.23
2023-05-05T07:14:43.701Z,13.26
2023-05-05T07:15:46.901Z,13.33
2023-05-05T07:16:49.281Z,13.37
2023-05-05T07:17:51.348Z,13.42
2023-05-05T07:18:53.260Z,13.44
2023-05-05T07:19:55.385Z,13.50
2023-05-05T07:20:57.299Z,13.56
2023-05-05T07:21:59.224Z,13.61
2023-05-05T07:23:01.186Z,13.65
2023-05-05T07:24:03.896Z,13.67
2023-05-05T07:25:06.632Z,13.70
2023-05-05T07:26:08.583Z,13.73
2023-05-05T07:27:10.866Z,13.77
2023-05-05T07:28:12.792Z,13.80
2023-05-05T07:29:14.803Z,13.83
2023-05-05T07:30:18.854Z,13.87
2023-05-05T07:31:22.323Z,13.89
2023-05-05T07:32:24.358Z,13.94
2023-05-05T07:33:26.471Z,14.00
2023-05-05T07:34:28.453Z,14.04
2023-05-05T07:35:30.534Z,14.06
2023-05-05T07:36:33.301Z,14.09
2023-05-05T07:37:35.268Z,14.16
2023-05-05T07:38:37.302Z,14.21
2023-05-05T07:39:39.216Z,14.28
2023-05-05T07:40:41.116Z,14.34
2023-05-05T07:41:43.600Z,14.42
2023-05-05T07:42:45.459Z,14.47
2023-05-05T07:43:47.386Z,14.53
2023-05-05T07:44:49.233Z,14.61
2023-05-05T07:45:51.393Z,14.68
2023-05-05T07:46:53.429Z,14.71
2023-05-05T07:47:55.418Z,14.73
2023-05-05T07:48:57.262Z,14.77
2023-05-05T07:49:59.163Z,14.81
2023-05-05T07:51:01.154Z,14.83
2023-05-05T07:52:03.165Z,14.87
2023-05-05T07:53:13.523Z,14.94
2023-05-05T07:54:16.455Z,15.00
2023-05-05T07:55:18.536Z,15.05
2023-05-05T07:56:21.771Z,15.07
2023-05-05T07:57:23.978Z,15.09
2023-05-05T07:58:26.069Z,15.13
2023-05-05T07:59:27.946Z,15.15
2023-05-05T08:00:30.143Z,15.18
2023-05-05T08:01:32.285Z,15.21
2023-05-05T08:02:34.238Z,15.26
2023-05-05T08:03:36.280Z,15.31
2023-05-05T08:04:38.570Z,15.36
2023-05-05T08:05:40.938Z,15.42
2023-05-05T08:06:42.794Z,15.49
2023-05-05T08:07:44.696Z,15.53
2023-05-05T08:08:46.669Z,15.57
2023-05-05T08:09:48.552Z,15.60
2023-05-05T08:10:51.176Z,15.63
2023-05-05T08:11:53.019Z,15.68
2023-05-05T08:12:55.228Z,15.71
2023-05-05T08:13:57.212Z,15.76
2023-05-05T08:14:59.106Z,15.78
2023-05-05T08:16:01.329Z,15.79
2023-05-05T08:17:03.167Z,15.82
2023-05-05T08:18:05.062Z,15.87
2023-05-05T08:19:17.679Z,15.92
2023-05-05T08:20:28.343Z,15.97
2023-05-05T08:21:30.284Z,16.04
2023-05-05T08:22:32.181Z,16.06
2023-05-05T08:23:37.303Z,16.08
2023-05-05T08:24:39.140Z,16.12
2023-05-05T08:25:41.196Z,16.14
2023-05-05T08:26:43.111Z,16.19
2023-05-05T08:27:45.120Z,16.24
2023-05-05T08:28:47.389Z,16.27
2023-05-05T08:29:49.247Z,16.29
2023-05-05T08:30:51.187Z,16.36
2023-05-05T08:31:53.182Z,16.40
2023-05-05T08:32:55.473Z,16.46
2023-05-05T08:33:57.581Z,16.51
2023-05-05T08:35:01.263Z,16.58
2023-05-05T08:36:03.070Z,16.63
2023-05-05T08:37:05.025Z,16.65
2023-05-05T08:38:06.890Z,16.69
2023-05-05T08:39:08.916Z,16.69
2023-05-05T08:40:14.726Z,16.72
2023-05-05T08:41:17.989Z,16.74
2023-05-05T08:42:28.967Z,16.79
2023-05-05T08:43:36.893Z,16.80
2023-05-05T08:44:38.724Z,16.84
2023-05-05T08:45:41.226Z,16.86
2023-05-05T08:46:43.170Z,16.89
2023-05-05T08:47:45.374Z,16.92
2023-05-05T08:48:48.927Z,16.96
2023-05-05T08:49:54.193Z,16.98
2023-05-05T08:50:59.937Z,17.01
2023-05-05T08:52:05.309Z,17.08
2023-05-05T08:53:07.154Z,17.16
2023-05-05T08:54:14.282Z,17.21
2023-05-05T08:55:22.339Z,17.26
2023-05-05T08:56:27.165Z,17.31
2023-05-05T08:57:32.833Z,17.36
2023-05-05T08:58:36.987Z,17.39
2023-05-05T08:59:39.475Z,17.44
2023-05-05T09:00:43.042Z,17.44
2023-05-05T09:01:45.362Z,17.46
2023-05-05T09:02:47.827Z,17.50
2023-05-05T09:03:50.601Z,17.57
2023-05-05T09:04:52.722Z,17.62
2023-05-05T09:05:54.592Z,17.67
2023-05-05T09:06:58.393Z,17.71
2023-05-05T09:08:02.141Z,17.74
2023-05-05T09:09:04.145Z,17.80
2023-05-05T09:10:06.410Z,17.89
2023-05-05T09:11:08.309Z,17.95
2023-05-05T09:12:10.196Z,18.00
2023-05-05T09:13:30.216Z,18.06
2023-05-05T09:14:32.229Z,18.16
2023-05-05T09:15:37.900Z,18.22
2023-05-05T09:16:43.885Z,18.28
2023-05-05T09:17:45.972Z,18.32
2023-05-05T09:18:47.912Z,18.37
2023-05-05T09:20:16.508Z,18.45
2023-05-05T09:21:22.186Z,18.51
2023-05-05T09:22:36.774Z,18.63
2023-05-05T09:23:38.751Z,18.73
2023-05-05T09:24:54.715Z,18.80
2023-05-05T09:26:04.577Z,18.89
2023-05-05T09:27:21.332Z,18.96
2023-05-05T09:28:23.248Z,19.07
2023-05-05T09:29:25.307Z,19.14
2023-05-05T09:30:27.507Z,19.20
2023-05-05T09:31:33.248Z,19.27
2023-05-05T09:32:51.199Z,19.31
2023-05-05T09:33:53.108Z,19.39
2023-05-05T09:35:01.416Z,19.43
2023-05-05T09:36:03.404Z,19.49
2023-05-05T09:37:06.342Z,19.54
2023-05-05T09:38:11.804Z,19.59
2023-05-05T09:39:16.984Z,19.68
2023-05-05T09:40:20.126Z,19.73
2023-05-05T09:41:37.159Z,19.80
2023-05-05T09:42:39.957Z,19.92
2023-05-05T09:43:52.242Z,20.01
2023-05-05T09:44:54.654Z,20.07
2023-05-05T09:46:05.919Z,20.12
2023-05-05T09:47:18.169Z,20.24
2023-05-05T09:48:29.228Z,20.34
2023-05-05T09:49:31.171Z,20.39
2023-05-05T09:50:45.009Z,20.41
2023-05-05T09:51:47.453Z,20.45
2023-05-05T09:52:59.155Z,20.53
2023-05-05T09:54:00.997Z,20.61
2023-05-05T09:55:02.961Z,20.69
2023-05-05T09:56:05.090Z,20.72
2023-05-05T09:57:07.012Z,20.77
2023-05-05T09:58:19.017Z,20.83
2023-05-05T09:59:21.611Z,20.87
2023-05-05T10:00:23.790Z,20.91
2023-05-05T10:01:25.714Z,20.97
2023-05-05T10:02:39.797Z,21.08
2023-05-05T10:03:50.193Z,21.16
2023-05-05T10:05:04.542Z,21.28
2023-05-05T10:06:08.076Z,21.42
2023-05-05T10:07:22.428Z,21.52
2023-05-05T10:08:28.509Z,21.63
2023-05-05T10:09:32.139Z,21.72
2023-05-05T10:10:34.309Z,21.84
2023-05-05T10:11:36.678Z,21.94
2023-05-05T10:12:38.722Z,22.00
2023-05-05T10:13:42.269Z,22.09
2023-05-05T10:14:44.449Z,22.21
2023-05-05T10:15:47.485Z,22.34
2023-05-05T10:16:51.138Z,22.43
2023-05-05T10:18:06.737Z,22.51
2023-05-05T10:19:10.923Z,22.63
2023-05-05T10:20:13.628Z,22.71
2023-05-05T10:21:17.683Z,22.80
2023-05-05T10:22:23.027Z,22.89
2023-05-05T10:23:27.630Z,22.96
2023-05-05T10:24:35.914Z,23.06
2023-05-05T10:25:43.280Z,23.17
2023-05-05T10:26:46.702Z,23.30
2023-05-05T10:27:54.046Z,23.41
2023-05-05T10:28:56.729Z,23.56
2023-05-05T10:30:05.795Z,23.69
2023-05-05T10:31:20.389Z,23.80
2023-05-05T10:33:58.700Z,24.08
2023-05-05T10:35:01.804Z,24.22
2023-05-05T10:36:05.620Z,24.31
2023-05-05T10:37:07.927Z,24.43
2023-05-05T10:38:10.284Z,24.52
2023-05-05T10:39:12.515Z,24.61
2023-05-05T10:40:15.017Z,24.71
2023-05-05T10:41:18.778Z,24.83
2023-05-05T10:42:21.498Z,24.89
2023-05-05T10:43:23.789Z,24.97
2023-05-05T10:44:25.776Z,25.05
2023-05-05T10:45:27.829Z,25.12
2023-05-05T10:46:29.853Z,25.22
2023-05-05T10:47:32.413Z,25.30
2023-05-05T10:48:46.320Z,25.41
2023-05-05T10:49:53.800Z,25.48
2023-05-05T10:50:59.519Z,25.58
2023-05-05T10:52:33.840Z,25.68
2023-05-05T10:53:44.909Z,25.84
2023-05-05T10:55:09.944Z,25.93
2023-05-05T10:56:11.668Z,25.96
2023-05-05T10:57:15.167Z,26.06
2023-05-05T10:58:40.735Z,26.16
2023-05-05T10:59:49.244Z,26.16
2023-05-05T11:00:51.686Z,26.24
2023-05-05T11:01:54.315Z,26.32
2023-05-05T11:03:16.489Z,26.41
2023-05-05T11:04:18.472Z,26.49
2023-05-05T11:05:23.590Z,26.62
2023-05-05T11:06:25.755Z,26.78
2023-05-05T11:07:27.807Z,26.81
2023-05-05T11:08:30.392Z,26.89
2023-05-05T11:09:32.367Z,27.01
2023-05-05T11:10:54.469Z,27.00
2023-05-05T11:12:03.459Z,27.11
2023-05-05T11:13:05.401Z,27.21
2023-05-05T11:14:21.799Z,27.25
2023-05-05T11:15:26.890Z,27.27
2023-05-05T11:16:46.170Z,27.38
2023-05-05T11:17:48.624Z,27.37
2023-05-05T11:18:50.778Z,27.44
2023-05-05T11:19:53.141Z,27.47
2023-05-05T11:20:55.068Z,27.38
2023-05-05T11:22:01.065Z,27.43
2023-05-05T11:23:02.965Z,27.52
2023-05-05T11:24:34.385Z,27.42
2023-05-05T11:25:42.353Z,27.59
2023-05-05T11:26:51.618Z,27.75
2023-05-05T11:28:12.081Z,27.79
2023-05-05T11:29:13.915Z,27.87
2023-05-05T11:30:17.095Z,27.99
2023-05-05T11:31:19.759Z,28.13
2023-05-05T11:32:21.907Z,28.17
2023-05-05T11:33:25.221Z,28.19
2023-05-05T11:34:28.266Z,28.20
2023-05-05T11:35:48.786Z,28.32
2023-05-05T11:36:51.831Z,28.13
2023-05-05T11:38:04.028Z,28.23
2023-05-05T11:39:10.536Z,28.36
2023-05-05T11:40:12.392Z,28.45
2023-05-05T11:41:32.602Z,28.54
2023-05-05T11:42:34.673Z,28.64
2023-05-05T11:43:36.998Z,28.71
2023-05-05T11:44:39.059Z,28.77
2023-05-05T11:45:40.860Z,28.86
2023-05-05T11:46:51.404Z,28.87
2023-05-05T11:47:53.272Z,28.81
2023-05-05T11:48:55.113Z,28.89
2023-05-05T11:49:57.476Z,28.96
2023-05-05T11:51:02.815Z,29.03
2023-05-05T11:52:05.987Z,29.09
2023-05-05T11:53:07.921Z,29.15
2023-05-05T11:54:09.773Z,29.21
2023-05-05T11:55:11.971Z,29.32
2023-05-05T11:56:19.320Z,29.35
2023-05-05T11:57:27.522Z,29.37
2023-05-05T11:58:29.335Z,29.43
2023-05-05T11:59:57.512Z,29.09
2023-05-05T12:00:59.420Z,28.67
2023-05-05T12:02:01.464Z,28.62
2023-05-05T12:03:04.357Z,28.64
2023-05-05T12:04:06.929Z,28.76
2023-05-05T12:05:09.082Z,28.97
2023-05-05T12:06:10.939Z,29.06
2023-05-05T12:07:19.957Z,29.25
2023-05-05T12:08:21.949Z,29.46
2023-05-05T12:09:24.253Z,29.48
2023-05-05T12:10:26.331Z,29.56
2023-05-05T12:11:28.259Z,29.58
2023-05-05T12:12:36.659Z,29.70
2023-05-05T12:13:38.607Z,29.71
2023-05-05T12:14:47.412Z,29.81
2023-05-05T12:15:49.317Z,29.90
2023-05-05T12:16:58.248Z,29.96
2023-05-05T12:18:02.331Z,29.94
2023-05-05T12:19:08.822Z,30.08
2023-05-05T12:20:12.160Z,30.02
2023-05-05T12:21:21.186Z,30.10
2023-05-05T12:22:24.184Z,30.06
2023-05-05T12:23:30.204Z,30.04
2023-05-05T12:24:32.042Z,29.58
2023-05-05T12:25:38.487Z,29.50
2023-05-05T12:26:40.699Z,29.65
2023-05-05T12:27:52.267Z,29.80
2023-05-05T12:28:54.505Z,29.91
2023-05-05T12:29:57.486Z,29.97
2023-05-05T12:30:59.854Z,29.99
2023-05-05T12:32:01.969Z,29.98
2023-05-05T12:33:07.618Z,29.97
2023-05-05T12:34:10.614Z,30.14
2023-05-05T12:35:13.166Z,30.13
2023-05-05T12:36:15.688Z,30.19
2023-05-05T12:37:19.326Z,30.12
2023-05-05T12:38:21.329Z,29.79
2023-05-05T12:39:23.278Z,29.50
2023-05-05T12:40:44.567Z,29.26
2023-05-05T12:41:46.818Z,28.89
2023-05-05T12:42:48.726Z,28.55
2023-05-05T12:44:00.023Z,28.51
2023-05-05T12:45:02.209Z,28.77
2023-05-05T12:46:05.626Z,29.02
2023-05-05T12:47:07.830Z,29.24
2023-05-05T12:48:29.844Z,29.40
2023-05-05T12:49:34.535Z,29.66
2023-05-05T12:50:36.586Z,29.74
2023-05-05T12:51:38.867Z,29.94
2023-05-05T12:52:42.694Z,30.00
2023-05-05T12:53:48.142Z,30.15
2023-05-05T12:54:56.964Z,30.17
2023-05-05T12:55:58.818Z,30.20
2023-05-05T12:57:11.002Z,29.92
2023-05-05T12:58:12.959Z,29.58
2023-05-05T12:59:24.293Z,29.52
2023-05-05T13:00:26.410Z,29.69
2023-05-05T13:01:28.863Z,29.69
2023-05-05T13:02:34.767Z,29.62
2023-05-05T13:03:36.766Z,29.77
2023-05-05T13:04:48.339Z,30.00
2023-05-05T13:05:50.155Z,30.18
2023-05-05T13:07:09.034Z,30.18
2023-05-05T13:08:11.080Z,30.40
2023-05-05T13:09:30.721Z,30.49
2023-05-05T13:10:32.628Z,30.53
2023-05-05T13:11:38.307Z,30.65
2023-05-05T13:12:40.146Z,30.59
2023-05-05T13:13:42.474Z,30.70
2023-05-05T13:14:44.888Z,30.76
2023-05-05T13:15:46.742Z,30.74
2023-05-05T13:16:48.876Z,30.77
2023-05-05T13:17:50.778Z,30.65
2023-05-05T13:18:54.119Z,30.85
2023-05-05T13:19:56.065Z,30.98
2023-05-05T13:20:58.180Z,31.01
2023-05-05T13:22:00.133Z,31.16
2023-05-05T13:23:01.952Z,30.93
2023-05-05T13:25:08.955Z,30.28
2023-05-05T13:26:11.976Z,30.22
2023-05-05T13:27:14.126Z,30.07
2023-05-05T13:28:16.311Z,30.00
2023-05-05T13:29:18.621Z,29.86
2023-05-05T13:30:21.207Z,30.02
2023-05-05T13:31:22.972Z,30.18
2023-05-05T13:32:25.010Z,29.90
2023-05-05T13:33:26.857Z,29.68
2023-05-05T13:34:28.961Z,29.24
2023-05-05T13:35:31.113Z,29.06
2023-05-05T13:36:33.076Z,29.20
2023-05-05T13:37:34.981Z,29.32
2023-05-05T13:38:36.882Z,29.47
2023-05-05T13:39:38.806Z,29.50
2023-05-05T13:40:40.750Z,29.36
2023-05-05T13:41:44.996Z,29.62
2023-05-05T13:42:47.134Z,29.46
2023-05-05T13:43:49.358Z,29.41
2023-05-05T13:44:51.255Z,29.50
2023-05-05T13:45:53.888Z,29.69
2023-05-05T13:46:55.789Z,29.97
2023-05-05T13:47:57.692Z,30.19
2023-05-05T13:48:59.580Z,30.29
2023-05-05T13:50:02.220Z,30.47
2023-05-05T13:51:04.204Z,30.33
2023-05-05T13:52:06.285Z,30.18
2023-05-05T13:53:08.274Z,30.27
2023-05-05T13:54:10.997Z,30.34
2023-05-05T13:55:12.805Z,30.28
2023-05-05T13:56:14.774Z,30.44
2023-05-05T13:57:17.178Z,30.64